PWSweather.com
Personal Weather Stations
Station Observations
KNHRINDG3
Converse Meadow Pond, Rindge, NH 03461

Converse Meadow PondRindge, NH 03461

Lat: 42.74, Lon: -71.98

Elevation: 1060

Station Type: Davis Vantage Pro 2

http://nhwoodworker.com/weather/index.php

High Low Average
Temperature 84.5°F29.2°F 54.6°F12.6°F 68.8°F20.4°F
Dew Point 67.0°F19.4°F 54.0°F12.2°F 60.6°F15.9°F
Winds 2.3 mph W3.7 mph W Calm Calm 0.2 mph 0.3 mph
Wind Gusts 6.9 mph11.1 mph -- 0.7 mph1.1 mph
Humidity 100% 44% 78%
Pressure 30.20 in1022.70 in 30.04 in1017.30 in -
Precipitation 0.00 in0.00 in - -
Hour Temp Dew Point Humidity Winds Wind Gusts Pressure Precip Precip Rate Daily Precip Total
12:00 AM 62.9°F17.2°C 61.2°F16.2°C 94% Calm Calm -- 30.04 in1017.3 mb - 0.00 in0.0 mm 0.00 in0.0 mm
12:10 AM 62.5°F16.9°C 61.0°F16.1°C 95% Calm Calm -- 30.04 in1017.3 mb - 0.00 in0.0 mm 0.00 in0.0 mm
12:20 AM 62.3°F16.8°C 60.8°F16.0°C 95% Calm Calm -- 30.04 in1017.3 mb - 0.00 in0.0 mm 0.00 in0.0 mm
12:30 AM 61.9°F16.6°C 60.5°F15.8°C 95% Calm Calm -- 30.04 in1017.3 mb - 0.00 in0.0 mm 0.00 in0.0 mm
12:40 AM 61.6°F16.4°C 60.2°F15.7°C 95% Calm Calm -- 30.05 in1017.6 mb - 0.00 in0.0 mm 0.00 in0.0 mm
12:50 AM 61.4°F16.3°C 59.9°F15.5°C 95% Calm Calm -- 30.05 in1017.6 mb - 0.00 in0.0 mm 0.00 in0.0 mm
01:00 AM 60.9°F16.1°C 59.5°F15.3°C 95% Calm Calm -- 30.05 in1017.6 mb - 0.00 in0.0 mm 0.00 in0.0 mm
01:10 AM 60.5°F15.8°C 59.4°F15.2°C 96% Calm Calm -- 30.05 in1017.6 mb - 0.00 in0.0 mm 0.00 in0.0 mm
01:20 AM 60.3°F15.7°C 59.2°F15.1°C 96% Calm Calm -- 30.06 in1017.9 mb - 0.00 in0.0 mm 0.00 in0.0 mm
01:30 AM 60.0°F15.6°C 58.9°F14.9°C 96% Calm Calm -- 30.06 in1017.9 mb - 0.00 in0.0 mm 0.00 in0.0 mm
01:40 AM 59.8°F15.4°C 58.7°F14.8°C 96% Calm Calm -- 30.06 in1017.9 mb - 0.00 in0.0 mm 0.00 in0.0 mm
01:50 AM 59.7°F15.4°C 58.5°F14.7°C 96% Calm Calm -- 30.06 in1017.9 mb - 0.00 in0.0 mm 0.00 in0.0 mm
02:00 AM 59.5°F15.3°C 58.3°F14.6°C 96% Calm Calm -- 30.07 in1018.3 mb - 0.00 in0.0 mm 0.00 in0.0 mm
02:10 AM 59.3°F15.2°C 58.4°F14.7°C 97% Calm Calm -- 30.07 in1018.3 mb - 0.00 in0.0 mm 0.00 in0.0 mm
02:20 AM 59.0°F15.0°C 58.2°F14.6°C 97% Calm Calm -- 30.07 in1018.3 mb - 0.00 in0.0 mm 0.00 in0.0 mm
02:30 AM 58.9°F14.9°C 58.0°F14.4°C 97% Calm Calm -- 30.07 in1018.3 mb - 0.00 in0.0 mm 0.00 in0.0 mm
02:40 AM 58.5°F14.7°C 57.7°F14.3°C 97% Calm Calm -- 30.07 in1018.3 mb - 0.00 in0.0 mm 0.00 in0.0 mm
02:50 AM 58.3°F14.6°C 57.4°F14.1°C 97% Calm Calm -- 30.07 in1018.3 mb - 0.00 in0.0 mm 0.00 in0.0 mm
03:00 AM 58.1°F14.5°C 57.3°F14.1°C 97% Calm Calm -- 30.07 in1018.3 mb - 0.00 in0.0 mm 0.00 in0.0 mm
03:20 AM 57.5°F14.2°C 56.7°F13.7°C 97% Calm Calm -- 30.08 in1018.6 mb - 0.00 in0.0 mm 0.00 in0.0 mm
03:30 AM 57.3°F14.1°C 56.5°F13.6°C 97% Calm Calm -- 30.08 in1018.6 mb - 0.00 in0.0 mm 0.00 in0.0 mm
03:40 AM 57.2°F14.0°C 56.4°F13.6°C 97% Calm Calm -- 30.08 in1018.6 mb - 0.00 in0.0 mm 0.00 in0.0 mm
03:50 AM 57.0°F13.9°C 56.2°F13.4°C 97% Calm Calm -- 30.08 in1018.6 mb - 0.00 in0.0 mm 0.00 in0.0 mm
04:00 AM 56.8°F13.8°C 56.0°F13.3°C 97% Calm Calm -- 30.08 in1018.6 mb - 0.00 in0.0 mm 0.00 in0.0 mm
04:10 AM 56.6°F13.7°C 55.8°F13.2°C 97% Calm Calm -- 30.08 in1018.6 mb - 0.00 in0.0 mm 0.00 in0.0 mm
04:20 AM 56.5°F13.6°C 55.7°F13.2°C 97% Calm Calm -- 30.09 in1019.0 mb - 0.00 in0.0 mm 0.00 in0.0 mm
04:30 AM 56.4°F13.6°C 55.6°F13.1°C 97% Calm Calm -- 30.09 in1019.0 mb - 0.00 in0.0 mm 0.00 in0.0 mm
04:40 AM 56.1°F13.4°C 55.3°F12.9°C 97% Calm Calm -- 30.09 in1019.0 mb - 0.00 in0.0 mm 0.00 in0.0 mm
04:50 AM 55.8°F13.2°C 55.0°F12.8°C 97% Calm Calm -- 30.09 in1019.0 mb - 0.00 in0.0 mm 0.00 in0.0 mm
05:00 AM 55.7°F13.2°C 54.9°F12.7°C 97% Calm Calm -- 30.09 in1019.0 mb - 0.00 in0.0 mm 0.00 in0.0 mm
05:10 AM 55.4°F13.0°C 54.6°F12.6°C 97% Calm Calm -- 30.09 in1019.0 mb - 0.00 in0.0 mm 0.00 in0.0 mm
05:20 AM 55.3°F12.9°C 54.5°F12.5°C 97% Calm Calm -- 30.10 in1019.3 mb - 0.00 in0.0 mm 0.00 in0.0 mm
05:30 AM 55.1°F12.8°C 54.6°F12.6°C 98% Calm Calm -- 30.10 in1019.3 mb - 0.00 in0.0 mm 0.00 in0.0 mm
05:40 AM 55.0°F12.8°C 54.4°F12.4°C 98% Calm Calm -- 30.10 in1019.3 mb - 0.00 in0.0 mm 0.00 in0.0 mm
05:50 AM 54.9°F12.7°C 54.3°F12.4°C 98% Calm Calm -- 30.11 in1019.6 mb - 0.00 in0.0 mm 0.00 in0.0 mm
06:00 AM 54.9°F12.7°C 54.3°F12.4°C 98% Calm Calm -- 30.11 in1019.6 mb - 0.00 in0.0 mm 0.00 in0.0 mm
06:10 AM 54.9°F12.7°C 54.3°F12.4°C 98% Calm Calm -- 30.12 in1020.0 mb - 0.00 in0.0 mm 0.00 in0.0 mm
06:20 AM 54.7°F12.6°C 54.1°F12.3°C 98% Calm Calm -- 30.12 in1020.0 mb - 0.00 in0.0 mm 0.00 in0.0 mm
06:30 AM 54.6°F12.6°C 54.0°F12.2°C 98% Calm Calm -- 30.13 in1020.3 mb - 0.00 in0.0 mm 0.00 in0.0 mm
06:40 AM 54.6°F12.6°C 54.0°F12.2°C 98% Calm Calm -- 30.13 in1020.3 mb - 0.00 in0.0 mm 0.00 in0.0 mm
06:50 AM 54.6°F12.6°C 54.0°F12.2°C 98% Calm Calm -- 30.13 in1020.3 mb - 0.00 in0.0 mm 0.00 in0.0 mm
07:00 AM 54.6°F12.6°C 54.1°F12.3°C 98% Calm Calm -- 30.14 in1020.7 mb - 0.00 in0.0 mm 0.00 in0.0 mm
07:10 AM 54.9°F12.7°C 54.3°F12.4°C 98% Calm Calm -- 30.14 in1020.7 mb - 0.00 in0.0 mm 0.00 in0.0 mm
07:20 AM 55.2°F12.9°C 54.6°F12.6°C 98% Calm Calm -- 30.14 in1020.7 mb - 0.00 in0.0 mm 0.00 in0.0 mm
07:30 AM 55.4°F13.0°C 55.2°F12.9°C 99% Calm Calm -- 30.15 in1021.0 mb - 0.00 in0.0 mm 0.00 in0.0 mm
07:40 AM 56.0°F13.3°C 55.7°F13.2°C 99% Calm Calm -- 30.15 in1021.0 mb - 0.00 in0.0 mm 0.00 in0.0 mm
07:50 AM 56.5°F13.6°C 56.2°F13.4°C 99% Calm Calm -- 30.15 in1021.0 mb - 0.00 in0.0 mm 0.00 in0.0 mm
08:00 AM 57.1°F13.9°C 56.8°F13.8°C 99% Calm Calm -- 30.15 in1021.0 mb - 0.00 in0.0 mm 0.00 in0.0 mm
08:10 AM 57.7°F14.3°C 57.4°F14.1°C 99% Calm Calm -- 30.15 in1021.0 mb - 0.00 in0.0 mm 0.00 in0.0 mm
08:20 AM 58.2°F14.6°C 57.9°F14.4°C 99% Calm Calm -- 30.15 in1021.0 mb - 0.00 in0.0 mm 0.00 in0.0 mm
08:30 AM 58.9°F14.9°C 58.6°F14.8°C 99% Calm Calm -- 30.15 in1021.0 mb - 0.00 in0.0 mm 0.00 in0.0 mm
08:40 AM 60.2°F15.7°C 59.9°F15.5°C 99% Calm Calm -- 30.15 in1021.0 mb - 0.00 in0.0 mm 0.00 in0.0 mm
08:50 AM 61.6°F16.4°C 61.3°F16.3°C 99% Calm Calm -- 30.15 in1021.0 mb - 0.00 in0.0 mm 0.00 in0.0 mm
09:00 AM 62.6°F17.0°C 62.3°F16.8°C 99% Calm Calm -- 30.15 in1021.0 mb - 0.00 in0.0 mm 0.00 in0.0 mm
09:10 AM 63.7°F17.6°C 63.7°F17.6°C 100% Calm Calm -- 30.16 in1021.3 mb - 0.00 in0.0 mm 0.00 in0.0 mm
09:20 AM 65.5°F18.6°C 65.5°F18.6°C 100% Calm Calm -- 30.16 in1021.3 mb - 0.00 in0.0 mm 0.00 in0.0 mm
09:30 AM 66.3°F19.1°C 66.0°F18.9°C 99% Calm Calm 1.2 mph1.9 kmh 30.16 in1021.3 mb - 0.00 in0.0 mm 0.00 in0.0 mm
09:40 AM 69.3°F20.7°C 65.9°F18.8°C 89% Calm Calm 1.2 mph1.9 kmh 30.16 in1021.3 mb - 0.00 in0.0 mm 0.00 in0.0 mm
09:50 AM 70.8°F21.6°C 66.4°F19.1°C 86% Calm Calm 2.3 mph3.7 kmh 30.17 in1021.7 mb - 0.00 in0.0 mm 0.00 in0.0 mm
10:00 AM 71.4°F21.9°C 66.0°F18.9°C 83% Calm Calm 2.3 mph3.7 kmh 30.17 in1021.7 mb - 0.00 in0.0 mm 0.00 in0.0 mm
10:10 AM 73.2°F22.9°C 67.0°F19.4°C 81% Calm Calm -- 30.17 in1021.7 mb - 0.00 in0.0 mm 0.00 in0.0 mm
10:20 AM 73.9°F23.3°C 64.7°F18.2°C 73% Calm Calm -- 30.17 in1021.7 mb - 0.00 in0.0 mm 0.00 in0.0 mm
10:30 AM 74.9°F23.8°C 65.6°F18.7°C 73% 1.2 mph NNW1.9 kmh NNW 1.2 mph1.9 kmh 30.17 in1021.7 mb - 0.00 in0.0 mm 0.00 in0.0 mm
10:40 AM 75.8°F24.3°C 64.5°F18.1°C 68% Calm Calm 1.2 mph1.9 kmh 30.16 in1021.3 mb - 0.00 in0.0 mm 0.00 in0.0 mm
10:50 AM 76.4°F24.7°C 64.2°F17.9°C 66% Calm Calm 1.2 mph1.9 kmh 30.16 in1021.3 mb - 0.00 in0.0 mm 0.00 in0.0 mm
11:00 AM 76.8°F24.9°C 65.8°F18.8°C 69% Calm Calm -- 30.16 in1021.3 mb - 0.00 in0.0 mm 0.00 in0.0 mm
11:10 AM 77.1°F25.1°C 64.5°F18.1°C 65% Calm Calm 1.2 mph1.9 kmh 30.16 in1021.3 mb - 0.00 in0.0 mm 0.00 in0.0 mm
11:20 AM 77.8°F25.4°C 66.8°F19.3°C 69% 1.2 mph ENE1.9 kmh ENE 3.5 mph5.6 kmh 30.16 in1021.3 mb - 0.00 in0.0 mm 0.00 in0.0 mm
11:30 AM 78.2°F25.7°C 64.1°F17.8°C 62% 1.2 mph WSW1.9 kmh WSW 1.2 mph1.9 kmh 30.15 in1021.0 mb - 0.00 in0.0 mm 0.00 in0.0 mm
11:40 AM 78.8°F26.0°C 65.2°F18.4°C 63% Calm Calm 2.3 mph3.7 kmh 30.15 in1021.0 mb - 0.00 in0.0 mm 0.00 in0.0 mm
11:50 AM 79.7°F26.5°C 66.4°F19.1°C 64% Calm Calm -- 30.15 in1021.0 mb - 0.00 in0.0 mm 0.00 in0.0 mm
12:00 PM 80.1°F26.7°C 64.5°F18.1°C 59% 1.2 mph NW1.9 kmh NW 2.3 mph3.7 kmh 30.15 in1021.0 mb - 0.00 in0.0 mm 0.00 in0.0 mm
12:10 PM 80.8°F27.1°C 65.2°F18.4°C 59% Calm Calm 1.2 mph1.9 kmh 30.15 in1021.0 mb - 0.00 in0.0 mm 0.00 in0.0 mm
12:20 PM 81.1°F27.3°C 64.4°F18.0°C 57% Calm Calm 1.2 mph1.9 kmh 30.14 in1020.7 mb - 0.00 in0.0 mm 0.00 in0.0 mm
12:30 PM 81.2°F27.3°C 63.5°F17.5°C 55% Calm Calm 1.2 mph1.9 kmh 30.14 in1020.7 mb - 0.00 in0.0 mm 0.00 in0.0 mm
12:50 PM 81.8°F27.7°C 64.6°F18.1°C 56% 2.3 mph W3.7 kmh W 6.9 mph11.1 kmh 30.14 in1020.7 mb - 0.00 in0.0 mm 0.00 in0.0 mm
01:00 PM 82.4°F28.0°C 63.0°F17.2°C 52% 1.2 mph NW1.9 kmh NW 3.5 mph5.6 kmh 30.14 in1020.7 mb - 0.00 in0.0 mm 0.00 in0.0 mm
01:10 PM 82.8°F28.2°C 62.3°F16.8°C 50% 1.2 mph WSW1.9 kmh WSW 3.5 mph5.6 kmh 30.14 in1020.7 mb - 0.00 in0.0 mm 0.00 in0.0 mm
01:20 PM 82.8°F28.2°C 63.4°F17.4°C 52% 2.3 mph N3.7 kmh N 4.6 mph7.4 kmh 30.14 in1020.7 mb - 0.00 in0.0 mm 0.00 in0.0 mm
01:30 PM 83.2°F28.4°C 62.7°F17.1°C 50% 1.2 mph NW1.9 kmh NW 2.3 mph3.7 kmh 30.14 in1020.7 mb - 0.00 in0.0 mm 0.00 in0.0 mm
01:40 PM 83.3°F28.5°C 62.1°F16.7°C 49% Calm Calm 3.5 mph5.6 kmh 30.14 in1020.7 mb - 0.00 in0.0 mm 0.00 in0.0 mm
01:50 PM 83.5°F28.6°C 65.1°F18.4°C 54% Calm Calm 2.3 mph3.7 kmh 30.13 in1020.3 mb - 0.00 in0.0 mm 0.00 in0.0 mm
02:00 PM 83.8°F28.8°C 63.7°F17.6°C 51% 1.2 mph ESE1.9 kmh ESE 3.5 mph5.6 kmh 30.13 in1020.3 mb - 0.00 in0.0 mm 0.00 in0.0 mm
02:10 PM 83.8°F28.8°C 63.7°F17.6°C 51% 1.2 mph ESE1.9 kmh ESE 2.3 mph3.7 kmh 30.13 in1020.3 mb - 0.00 in0.0 mm 0.00 in0.0 mm
02:30 PM 84.3°F29.1°C 63.7°F17.6°C 50% 1.2 mph NNW1.9 kmh NNW 3.5 mph5.6 kmh 30.13 in1020.3 mb - 0.00 in0.0 mm 0.00 in0.0 mm
02:40 PM 84.5°F29.2°C 63.9°F17.7°C 50% 1.2 mph NE1.9 kmh NE 2.3 mph3.7 kmh 30.13 in1020.3 mb - 0.00 in0.0 mm 0.00 in0.0 mm
02:50 PM 83.2°F28.4°C 63.8°F17.7°C 52% Calm Calm 1.2 mph1.9 kmh 30.13 in1020.3 mb - 0.00 in0.0 mm 0.00 in0.0 mm
03:00 PM 81.7°F27.6°C 65.0°F18.3°C 57% Calm Calm -- 30.13 in1020.3 mb - 0.00 in0.0 mm 0.00 in0.0 mm
03:10 PM 81.4°F27.4°C 63.2°F17.3°C 54% Calm Calm 1.2 mph1.9 kmh 30.13 in1020.3 mb - 0.00 in0.0 mm 0.00 in0.0 mm
03:20 PM 83.4°F28.6°C 63.4°F17.4°C 51% Calm Calm 3.5 mph5.6 kmh 30.12 in1020.0 mb - 0.00 in0.0 mm 0.00 in0.0 mm
03:30 PM 84.2°F29.0°C 61.8°F16.6°C 47% 1.2 mph NNW1.9 kmh NNW 2.3 mph3.7 kmh 30.12 in1020.0 mb - 0.00 in0.0 mm 0.00 in0.0 mm
03:40 PM 84.4°F29.1°C 61.9°F16.6°C 47% 1.2 mph SW1.9 kmh SW 3.5 mph5.6 kmh 30.12 in1020.0 mb - 0.00 in0.0 mm 0.00 in0.0 mm
03:50 PM 84.5°F29.2°C 61.5°F16.4°C 46% Calm Calm 1.2 mph1.9 kmh 30.12 in1020.0 mb - 0.00 in0.0 mm 0.00 in0.0 mm
04:00 PM 83.8°F28.8°C 62.0°F16.7°C 48% Calm Calm 1.2 mph1.9 kmh 30.13 in1020.3 mb - 0.00 in0.0 mm 0.00 in0.0 mm
04:10 PM 83.0°F28.3°C 61.3°F16.3°C 48% Calm Calm 1.2 mph1.9 kmh 30.12 in1020.0 mb - 0.00 in0.0 mm 0.00 in0.0 mm
04:20 PM 83.5°F28.6°C 61.1°F16.2°C 47% 1.2 mph ESE1.9 kmh ESE 2.3 mph3.7 kmh 30.12 in1020.0 mb - 0.00 in0.0 mm 0.00 in0.0 mm
04:30 PM 84.3°F29.1°C 62.5°F16.9°C 48% Calm Calm 1.2 mph1.9 kmh 30.12 in1020.0 mb - 0.00 in0.0 mm 0.00 in0.0 mm
04:40 PM 84.1°F28.9°C 61.1°F16.2°C 46% Calm Calm 1.2 mph1.9 kmh 30.12 in1020.0 mb - 0.00 in0.0 mm 0.00 in0.0 mm
04:50 PM 84.4°F29.1°C 61.4°F16.3°C 46% 1.2 mph N1.9 kmh N 2.3 mph3.7 kmh 30.12 in1020.0 mb - 0.00 in0.0 mm 0.00 in0.0 mm
05:00 PM 84.4°F29.1°C 62.6°F17.0°C 48% Calm Calm 3.5 mph5.6 kmh 30.13 in1020.3 mb - 0.00 in0.0 mm 0.00 in0.0 mm
05:10 PM 83.7°F28.7°C 60.1°F15.6°C 45% Calm Calm 2.3 mph3.7 kmh 30.12 in1020.0 mb - 0.00 in0.0 mm 0.00 in0.0 mm
05:20 PM 83.8°F28.8°C 59.6°F15.3°C 44% Calm Calm -- 30.13 in1020.3 mb - 0.00 in0.0 mm 0.00 in0.0 mm
05:30 PM 83.9°F28.8°C 63.2°F17.3°C 50% Calm Calm -- 30.13 in1020.3 mb - 0.00 in0.0 mm 0.00 in0.0 mm
05:40 PM 82.5°F28.1°C 59.6°F15.3°C 46% Calm Calm 3.5 mph5.6 kmh 30.13 in1020.3 mb - 0.00 in0.0 mm 0.00 in0.0 mm
05:50 PM 81.1°F27.3°C 59.0°F15.0°C 47% 1.2 mph NNE1.9 kmh NNE 3.5 mph5.6 kmh 30.13 in1020.3 mb - 0.00 in0.0 mm 0.00 in0.0 mm
06:00 PM 79.9°F26.6°C 59.6°F15.3°C 50% 1.2 mph NNE1.9 kmh NNE 1.2 mph1.9 kmh 30.13 in1020.3 mb - 0.00 in0.0 mm 0.00 in0.0 mm
06:10 PM 78.7°F25.9°C 60.1°F15.6°C 53% Calm Calm -- 30.13 in1020.3 mb - 0.00 in0.0 mm 0.00 in0.0 mm
06:20 PM 78.0°F25.6°C 60.5°F15.8°C 55% Calm Calm -- 30.13 in1020.3 mb - 0.00 in0.0 mm 0.00 in0.0 mm
06:30 PM 77.2°F25.1°C 61.3°F16.3°C 58% Calm Calm -- 30.13 in1020.3 mb - 0.00 in0.0 mm 0.00 in0.0 mm
06:40 PM 76.6°F24.8°C 62.1°F16.7°C 61% Calm Calm -- 30.13 in1020.3 mb - 0.00 in0.0 mm 0.00 in0.0 mm
06:50 PM 76.1°F24.5°C 62.2°F16.8°C 62% Calm Calm -- 30.13 in1020.3 mb - 0.00 in0.0 mm 0.00 in0.0 mm
07:00 PM 74.6°F23.7°C 62.9°F17.2°C 67% Calm Calm -- 30.14 in1020.7 mb - 0.00 in0.0 mm 0.00 in0.0 mm
07:10 PM 73.8°F23.2°C 63.0°F17.2°C 69% Calm Calm -- 30.14 in1020.7 mb - 0.00 in0.0 mm 0.00 in0.0 mm
07:20 PM 72.5°F22.5°C 62.9°F17.2°C 72% Calm Calm -- 30.15 in1021.0 mb - 0.00 in0.0 mm 0.00 in0.0 mm
07:30 PM 72.2°F22.3°C 62.7°F17.1°C 72% Calm Calm -- 30.15 in1021.0 mb - 0.00 in0.0 mm 0.00 in0.0 mm
07:40 PM 71.5°F21.9°C 62.4°F16.9°C 73% Calm Calm -- 30.15 in1021.0 mb - 0.00 in0.0 mm 0.00 in0.0 mm
07:50 PM 71.0°F21.7°C 62.3°F16.8°C 74% Calm Calm -- 30.16 in1021.3 mb - 0.00 in0.0 mm 0.00 in0.0 mm
08:00 PM 69.6°F20.9°C 62.4°F16.9°C 78% Calm Calm -- 30.16 in1021.3 mb - 0.00 in0.0 mm 0.00 in0.0 mm
08:10 PM 69.1°F20.6°C 62.6°F17.0°C 80% Calm Calm -- 30.16 in1021.3 mb - 0.00 in0.0 mm 0.00 in0.0 mm
08:20 PM 68.8°F20.4°C 62.7°F17.1°C 81% Calm Calm -- 30.16 in1021.3 mb - 0.00 in0.0 mm 0.00 in0.0 mm
08:30 PM 68.5°F20.3°C 62.8°F17.1°C 82% Calm Calm -- 30.16 in1021.3 mb - 0.00 in0.0 mm 0.00 in0.0 mm
08:40 PM 68.1°F20.1°C 63.1°F17.3°C 84% Calm Calm -- 30.17 in1021.7 mb - 0.00 in0.0 mm 0.00 in0.0 mm
08:50 PM 68.1°F20.1°C 62.7°F17.1°C 83% Calm Calm -- 30.17 in1021.7 mb - 0.00 in0.0 mm 0.00 in0.0 mm
09:00 PM 68.1°F20.1°C 62.7°F17.1°C 83% Calm Calm -- 30.17 in1021.7 mb - 0.00 in0.0 mm 0.00 in0.0 mm
09:10 PM 68.0°F20.0°C 62.7°F17.1°C 83% Calm Calm -- 30.18 in1022.0 mb - 0.00 in0.0 mm 0.00 in0.0 mm
09:20 PM 67.9°F19.9°C 62.9°F17.2°C 84% Calm Calm -- 30.18 in1022.0 mb - 0.00 in0.0 mm 0.00 in0.0 mm
09:30 PM 67.6°F19.8°C 62.6°F17.0°C 84% Calm Calm -- 30.19 in1022.4 mb - 0.00 in0.0 mm 0.00 in0.0 mm
09:40 PM 67.3°F19.6°C 62.3°F16.8°C 84% Calm Calm -- 30.19 in1022.4 mb - 0.00 in0.0 mm 0.00 in0.0 mm
09:50 PM 67.1°F19.5°C 62.1°F16.7°C 84% Calm Calm -- 30.19 in1022.4 mb - 0.00 in0.0 mm 0.00 in0.0 mm
10:00 PM 66.8°F19.3°C 61.8°F16.6°C 84% Calm Calm -- 30.19 in1022.4 mb - 0.00 in0.0 mm 0.00 in0.0 mm
10:10 PM 66.7°F19.3°C 61.7°F16.5°C 84% Calm Calm -- 30.20 in1022.7 mb - 0.00 in0.0 mm 0.00 in0.0 mm
10:20 PM 66.5°F19.2°C 61.5°F16.4°C 84% Calm Calm -- 30.20 in1022.7 mb - 0.00 in0.0 mm 0.00 in0.0 mm
10:40 PM 65.6°F18.7°C 60.6°F15.9°C 84% Calm Calm -- 30.20 in1022.7 mb - 0.00 in0.0 mm 0.00 in0.0 mm
10:50 PM 65.2°F18.4°C 60.6°F15.9°C 85% Calm Calm -- 30.20 in1022.7 mb - 0.00 in0.0 mm 0.00 in0.0 mm
11:00 PM 64.8°F18.2°C 60.2°F15.7°C 85% Calm Calm -- 30.20 in1022.7 mb - 0.00 in0.0 mm 0.00 in0.0 mm
11:10 PM 64.5°F18.1°C 59.9°F15.5°C 85% Calm Calm -- 30.20 in1022.7 mb - 0.00 in0.0 mm 0.00 in0.0 mm
11:20 PM 64.2°F17.9°C 60.2°F15.7°C 87% Calm Calm -- 30.20 in1022.7 mb - 0.00 in0.0 mm 0.00 in0.0 mm
11:30 PM 64.0°F17.8°C 60.1°F15.6°C 87% Calm Calm -- 30.20 in1022.7 mb - 0.00 in0.0 mm 0.00 in0.0 mm
11:40 PM 63.8°F17.7°C 60.2°F15.7°C 88% Calm Calm -- 30.20 in1022.7 mb - 0.00 in0.0 mm 0.00 in0.0 mm
11:50 PM 63.7°F17.6°C 60.1°F15.6°C 88% Calm Calm -- 30.20 in1022.7 mb - 0.00 in0.0 mm 0.00 in0.0 mm